sensor_id;sensor_type;location;lat;lon;timestamp;P1;durP1;ratioP1;P2;durP2;ratioP2
43160;SDS011;40968;52.342;5.528;2023-02-03T00:02:03;18.23;;;4.22;;
43160;SDS011;40968;52.342;5.528;2023-02-03T00:04:30;17.95;;;3.78;;
43160;SDS011;40968;52.342;5.528;2023-02-03T00:06:56;14.20;;;4.13;;
43160;SDS011;40968;52.342;5.528;2023-02-03T00:09:23;15.65;;;3.30;;
43160;SDS011;40968;52.342;5.528;2023-02-03T00:11:51;30.52;;;4.40;;
43160;SDS011;40968;52.342;5.528;2023-02-03T00:14:19;17.10;;;3.70;;
43160;SDS011;40968;52.342;5.528;2023-02-03T00:16:46;17.30;;;4.47;;
43160;SDS011;40968;52.342;5.528;2023-02-03T00:19:13;19.10;;;4.10;;
43160;SDS011;40968;52.342;5.528;2023-02-03T00:21:39;14.55;;;3.88;;
43160;SDS011;40968;52.342;5.528;2023-02-03T00:24:06;16.25;;;3.80;;
43160;SDS011;40968;52.342;5.528;2023-02-03T00:26:33;19.75;;;4.03;;
43160;SDS011;40968;52.342;5.528;2023-02-03T00:28:59;15.90;;;4.03;;
43160;SDS011;40968;52.342;5.528;2023-02-03T00:31:27;16.23;;;4.35;;
43160;SDS011;40968;52.342;5.528;2023-02-03T00:33:54;18.38;;;3.42;;
43160;SDS011;40968;52.342;5.528;2023-02-03T00:36:22;13.85;;;3.63;;
43160;SDS011;40968;52.342;5.528;2023-02-03T00:38:49;14.02;;;3.55;;
43160;SDS011;40968;52.342;5.528;2023-02-03T00:41:15;17.05;;;3.67;;
43160;SDS011;40968;52.342;5.528;2023-02-03T00:43:42;18.58;;;4.18;;
43160;SDS011;40968;52.342;5.528;2023-02-03T00:46:08;20.65;;;4.18;;
43160;SDS011;40968;52.342;5.528;2023-02-03T00:48:36;15.73;;;3.55;;
43160;SDS011;40968;52.342;5.528;2023-02-03T00:51:03;12.27;;;3.78;;
43160;SDS011;40968;52.342;5.528;2023-02-03T00:53:30;15.50;;;4.07;;
43160;SDS011;40968;52.342;5.528;2023-02-03T00:55:56;18.48;;;4.68;;
43160;SDS011;40968;52.342;5.528;2023-02-03T00:58:23;16.08;;;4.03;;
43160;SDS011;40968;52.342;5.528;2023-02-03T01:00:50;20.23;;;4.90;;
43160;SDS011;40968;52.342;5.528;2023-02-03T01:03:16;19.60;;;3.53;;
43160;SDS011;40968;52.342;5.528;2023-02-03T01:05:44;12.80;;;3.63;;
43160;SDS011;40968;52.342;5.528;2023-02-03T01:08:11;19.67;;;3.63;;
43160;SDS011;40968;52.342;5.528;2023-02-03T01:10:37;13.68;;;3.47;;
43160;SDS011;40968;52.342;5.528;2023-02-03T01:13:04;14.65;;;3.85;;
43160;SDS011;40968;52.342;5.528;2023-02-03T01:15:31;23.73;;;3.88;;
43160;SDS011;40968;52.342;5.528;2023-02-03T01:17:57;16.20;;;3.65;;
43160;SDS011;40968;52.342;5.528;2023-02-03T01:20:24;19.45;;;3.17;;
43160;SDS011;40968;52.342;5.528;2023-02-03T01:22:52;19.17;;;3.85;;
43160;SDS011;40968;52.342;5.528;2023-02-03T01:25:18;13.90;;;3.35;;
43160;SDS011;40968;52.342;5.528;2023-02-03T01:27:45;22.90;;;3.90;;
43160;SDS011;40968;52.342;5.528;2023-02-03T01:30:11;13.57;;;3.20;;
43160;SDS011;40968;52.342;5.528;2023-02-03T01:32:38;17.90;;;3.60;;
43160;SDS011;40968;52.342;5.528;2023-02-03T01:35:05;25.27;;;3.42;;
43160;SDS011;40968;52.342;5.528;2023-02-03T01:37:32;12.38;;;3.97;;
43160;SDS011;40968;52.342;5.528;2023-02-03T01:40:00;13.07;;;3.20;;
43160;SDS011;40968;52.342;5.528;2023-02-03T01:42:27;20.73;;;3.83;;
43160;SDS011;40968;52.342;5.528;2023-02-03T01:44:57;23.90;;;3.90;;
43160;SDS011;40968;52.342;5.528;2023-02-03T01:47:25;15.55;;;3.60;;
43160;SDS011;40968;52.342;5.528;2023-02-03T01:50:05;20.13;;;3.65;;
43160;SDS011;40968;52.342;5.528;2023-02-03T01:55:10;13.48;;;3.80;;
43160;SDS011;40968;52.342;5.528;2023-02-03T01:57:40;17.08;;;3.63;;
43160;SDS011;40968;52.342;5.528;2023-02-03T02:00:11;27.23;;;4.68;;
43160;SDS011;40968;52.342;5.528;2023-02-03T02:02:39;19.08;;;4.05;;
43160;SDS011;40968;52.342;5.528;2023-02-03T02:05:09;14.10;;;3.20;;
43160;SDS011;40968;52.342;5.528;2023-02-03T02:07:39;12.32;;;3.00;;
43160;SDS011;40968;52.342;5.528;2023-02-03T02:10:09;11.73;;;2.60;;
43160;SDS011;40968;52.342;5.528;2023-02-03T02:12:36;18.15;;;2.70;;
43160;SDS011;40968;52.342;5.528;2023-02-03T02:15:03;12.88;;;3.40;;
43160;SDS011;40968;52.342;5.528;2023-02-03T02:17:42;14.25;;;3.10;;
43160;SDS011;40968;52.342;5.528;2023-02-03T02:20:31;19.77;;;3.22;;
43160;SDS011;40968;52.342;5.528;2023-02-03T02:23:40;13.88;;;3.08;;
43160;SDS011;40968;52.342;5.528;2023-02-03T02:29:39;15.55;;;2.55;;
43160;SDS011;40968;52.342;5.528;2023-02-03T02:32:31;13.65;;;2.95;;
43160;SDS011;40968;52.342;5.528;2023-02-03T02:35:09;15.63;;;3.00;;
43160;SDS011;40968;52.342;5.528;2023-02-03T02:37:47;18.55;;;3.05;;
43160;SDS011;40968;52.342;5.528;2023-02-03T02:40:20;21.58;;;2.80;;
43160;SDS011;40968;52.342;5.528;2023-02-03T02:42:53;11.15;;;2.92;;
43160;SDS011;40968;52.342;5.528;2023-02-03T02:45:28;11.25;;;2.67;;
43160;SDS011;40968;52.342;5.528;2023-02-03T02:48:00;8.50;;;2.40;;
43160;SDS011;40968;52.342;5.528;2023-02-03T02:50:32;7.95;;;2.20;;
43160;SDS011;40968;52.342;5.528;2023-02-03T02:53:03;14.32;;;2.60;;
43160;SDS011;40968;52.342;5.528;2023-02-03T02:55:31;14.38;;;2.50;;
43160;SDS011;40968;52.342;5.528;2023-02-03T03:00:33;8.13;;;2.75;;
43160;SDS011;40968;52.342;5.528;2023-02-03T03:03:09;14.40;;;2.47;;
43160;SDS011;40968;52.342;5.528;2023-02-03T03:05:38;10.52;;;2.40;;
43160;SDS011;40968;52.342;5.528;2023-02-03T03:08:07;7.03;;;2.40;;
43160;SDS011;40968;52.342;5.528;2023-02-03T03:10:37;9.90;;;2.25;;
43160;SDS011;40968;52.342;5.528;2023-02-03T03:13:09;8.15;;;2.30;;
43160;SDS011;40968;52.342;5.528;2023-02-03T03:15:38;10.73;;;2.45;;
43160;SDS011;40968;52.342;5.528;2023-02-03T03:18:08;11.50;;;2.47;;
43160;SDS011;40968;52.342;5.528;2023-02-03T03:20:41;21.98;;;2.58;;
43160;SDS011;40968;52.342;5.528;2023-02-03T03:23:10;20.85;;;3.33;;
43160;SDS011;40968;52.342;5.528;2023-02-03T03:25:42;13.73;;;2.42;;
43160;SDS011;40968;52.342;5.528;2023-02-03T03:28:12;20.65;;;3.30;;
43160;SDS011;40968;52.342;5.528;2023-02-03T03:30:42;10.98;;;2.30;;
43160;SDS011;40968;52.342;5.528;2023-02-03T03:33:10;8.93;;;2.35;;
43160;SDS011;40968;52.342;5.528;2023-02-03T03:35:38;15.23;;;2.10;;
43160;SDS011;40968;52.342;5.528;2023-02-03T03:38:10;9.00;;;2.40;;
43160;SDS011;40968;52.342;5.528;2023-02-03T03:40:42;10.27;;;2.35;;
43160;SDS011;40968;52.342;5.528;2023-02-03T03:43:15;8.70;;;2.63;;
43160;SDS011;40968;52.342;5.528;2023-02-03T03:45:48;8.30;;;2.08;;
43160;SDS011;40968;52.342;5.528;2023-02-03T03:48:22;13.75;;;2.00;;
43160;SDS011;40968;52.342;5.528;2023-02-03T03:50:55;19.67;;;2.90;;
43160;SDS011;40968;52.342;5.528;2023-02-03T03:55:52;10.38;;;2.13;;
43160;SDS011;40968;52.342;5.528;2023-02-03T03:58:21;11.60;;;2.13;;
43160;SDS011;40968;52.342;5.528;2023-02-03T04:00:51;28.40;;;3.10;;
43160;SDS011;40968;52.342;5.528;2023-02-03T04:03:23;9.55;;;2.15;;
43160;SDS011;40968;52.342;5.528;2023-02-03T04:05:53;14.48;;;3.28;;
43160;SDS011;40968;52.342;5.528;2023-02-03T04:08:19;11.90;;;2.50;;
43160;SDS011;40968;52.342;5.528;2023-02-03T04:10:46;12.00;;;2.53;;
43160;SDS011;40968;52.342;5.528;2023-02-03T04:13:13;11.38;;;2.60;;
43160;SDS011;40968;52.342;5.528;2023-02-03T04:15:40;14.90;;;2.58;;
43160;SDS011;40968;52.342;5.528;2023-02-03T04:18:06;8.35;;;2.55;;
43160;SDS011;40968;52.342;5.528;2023-02-03T04:20:34;16.85;;;3.40;;
43160;SDS011;40968;52.342;5.528;2023-02-03T04:23:01;12.50;;;2.58;;
43160;SDS011;40968;52.342;5.528;2023-02-03T04:25:27;12.18;;;1.90;;
43160;SDS011;40968;52.342;5.528;2023-02-03T04:27:54;14.05;;;2.40;;
43160;SDS011;40968;52.342;5.528;2023-02-03T04:30:21;6.97;;;2.17;;
43160;SDS011;40968;52.342;5.528;2023-02-03T04:32:48;12.93;;;2.22;;
43160;SDS011;40968;52.342;5.528;2023-02-03T04:35:15;11.30;;;2.55;;
43160;SDS011;40968;52.342;5.528;2023-02-03T04:37:43;12.75;;;3.35;;
43160;SDS011;40968;52.342;5.528;2023-02-03T04:40:10;9.55;;;2.47;;
43160;SDS011;40968;52.342;5.528;2023-02-03T04:42:37;13.55;;;2.58;;
43160;SDS011;40968;52.342;5.528;2023-02-03T04:45:04;15.63;;;2.97;;
43160;SDS011;40968;52.342;5.528;2023-02-03T04:47:33;16.02;;;2.95;;
43160;SDS011;40968;52.342;5.528;2023-02-03T04:49:59;10.77;;;2.67;;
43160;SDS011;40968;52.342;5.528;2023-02-03T04:52:26;10.07;;;2.20;;
43160;SDS011;40968;52.342;5.528;2023-02-03T04:54:54;14.65;;;2.85;;
43160;SDS011;40968;52.342;5.528;2023-02-03T04:57:21;14.45;;;2.28;;
43160;SDS011;40968;52.342;5.528;2023-02-03T04:59:47;11.15;;;2.58;;
43160;SDS011;40968;52.342;5.528;2023-02-03T05:02:14;20.05;;;3.65;;
43160;SDS011;40968;52.342;5.528;2023-02-03T05:04:40;19.85;;;2.47;;
43160;SDS011;40968;52.342;5.528;2023-02-03T05:07:08;11.50;;;2.50;;
43160;SDS011;40968;52.342;5.528;2023-02-03T05:09:35;12.55;;;2.72;;
43160;SDS011;40968;52.342;5.528;2023-02-03T05:12:03;15.93;;;2.78;;
43160;SDS011;40968;52.342;5.528;2023-02-03T05:14:29;22.25;;;3.78;;
43160;SDS011;40968;52.342;5.528;2023-02-03T05:16:56;13.52;;;3.75;;
43160;SDS011;40968;52.342;5.528;2023-02-03T05:19:22;11.50;;;2.67;;
43160;SDS011;40968;52.342;5.528;2023-02-03T05:21:49;22.40;;;3.28;;
43160;SDS011;40968;52.342;5.528;2023-02-03T05:24:15;13.02;;;2.97;;
43160;SDS011;40968;52.342;5.528;2023-02-03T05:26:42;13.55;;;2.63;;
43160;SDS011;40968;52.342;5.528;2023-02-03T05:29:10;12.35;;;2.67;;
43160;SDS011;40968;52.342;5.528;2023-02-03T05:31:36;15.23;;;3.13;;
43160;SDS011;40968;52.342;5.528;2023-02-03T05:34:03;14.20;;;2.67;;
43160;SDS011;40968;52.342;5.528;2023-02-03T05:36:30;14.73;;;2.85;;
43160;SDS011;40968;52.342;5.528;2023-02-03T05:38:57;7.47;;;2.45;;
43160;SDS011;40968;52.342;5.528;2023-02-03T05:41:23;21.67;;;3.15;;
43160;SDS011;40968;52.342;5.528;2023-02-03T05:44:07;13.57;;;3.00;;
43160;SDS011;40968;52.342;5.528;2023-02-03T05:46:35;10.25;;;2.67;;
43160;SDS011;40968;52.342;5.528;2023-02-03T05:49:02;18.35;;;3.40;;
43160;SDS011;40968;52.342;5.528;2023-02-03T05:51:28;15.38;;;2.95;;
43160;SDS011;40968;52.342;5.528;2023-02-03T05:53:55;17.13;;;3.17;;
43160;SDS011;40968;52.342;5.528;2023-02-03T05:56:22;31.10;;;3.28;;
43160;SDS011;40968;52.342;5.528;2023-02-03T05:58:48;10.07;;;3.15;;
43160;SDS011;40968;52.342;5.528;2023-02-03T06:01:18;9.18;;;2.30;;
43160;SDS011;40968;52.342;5.528;2023-02-03T06:03:45;16.10;;;3.70;;
43160;SDS011;40968;52.342;5.528;2023-02-03T06:06:12;17.35;;;3.42;;
43160;SDS011;40968;52.342;5.528;2023-02-03T06:08:39;14.80;;;2.83;;
43160;SDS011;40968;52.342;5.528;2023-02-03T06:11:05;20.02;;;2.95;;
43160;SDS011;40968;52.342;5.528;2023-02-03T06:13:32;13.13;;;3.00;;
43160;SDS011;40968;52.342;5.528;2023-02-03T06:15:58;11.57;;;3.33;;
43160;SDS011;40968;52.342;5.528;2023-02-03T06:18:26;14.25;;;3.03;;
43160;SDS011;40968;52.342;5.528;2023-02-03T06:20:53;14.57;;;3.28;;
43160;SDS011;40968;52.342;5.528;2023-02-03T06:23:20;18.35;;;2.88;;
43160;SDS011;40968;52.342;5.528;2023-02-03T06:25:47;11.55;;;2.83;;
43160;SDS011;40968;52.342;5.528;2023-02-03T06:28:14;19.85;;;3.08;;
43160;SDS011;40968;52.342;5.528;2023-02-03T06:30:41;11.27;;;2.75;;
43160;SDS011;40968;52.342;5.528;2023-02-03T06:33:07;11.00;;;2.78;;
43160;SDS011;40968;52.342;5.528;2023-02-03T06:35:35;14.90;;;3.40;;
43160;SDS011;40968;52.342;5.528;2023-02-03T06:38:02;11.82;;;3.33;;
43160;SDS011;40968;52.342;5.528;2023-02-03T06:40:28;13.98;;;2.90;;
43160;SDS011;40968;52.342;5.528;2023-02-03T06:42:55;15.27;;;2.83;;
43160;SDS011;40968;52.342;5.528;2023-02-03T06:45:22;9.60;;;3.15;;
43160;SDS011;40968;52.342;5.528;2023-02-03T06:47:49;10.57;;;2.80;;
43160;SDS011;40968;52.342;5.528;2023-02-03T06:50:15;35.30;;;4.88;;
43160;SDS011;40968;52.342;5.528;2023-02-03T06:52:43;26.38;;;4.03;;
43160;SDS011;40968;52.342;5.528;2023-02-03T06:55:10;15.90;;;3.10;;
43160;SDS011;40968;52.342;5.528;2023-02-03T06:57:41;13.15;;;3.60;;
43160;SDS011;40968;52.342;5.528;2023-02-03T07:00:09;9.50;;;3.10;;
43160;SDS011;40968;52.342;5.528;2023-02-03T07:02:37;22.17;;;4.97;;
43160;SDS011;40968;52.342;5.528;2023-02-03T07:05:04;13.40;;;3.53;;
43160;SDS011;40968;52.342;5.528;2023-02-03T07:07:31;12.00;;;3.42;;
43160;SDS011;40968;52.342;5.528;2023-02-03T07:09:59;13.35;;;4.18;;
43160;SDS011;40968;52.342;5.528;2023-02-03T07:12:26;17.55;;;4.32;;
43160;SDS011;40968;52.342;5.528;2023-02-03T07:14:53;16.60;;;3.35;;
43160;SDS011;40968;52.342;5.528;2023-02-03T07:17:19;10.68;;;3.08;;
43160;SDS011;40968;52.342;5.528;2023-02-03T07:19:46;20.30;;;3.55;;
43160;SDS011;40968;52.342;5.528;2023-02-03T07:22:12;22.90;;;3.33;;
43160;SDS011;40968;52.342;5.528;2023-02-03T07:24:39;21.88;;;3.20;;
43160;SDS011;40968;52.342;5.528;2023-02-03T07:27:07;18.10;;;3.28;;
43160;SDS011;40968;52.342;5.528;2023-02-03T07:29:33;11.93;;;2.85;;
43160;SDS011;40968;52.342;5.528;2023-02-03T07:32:00;18.40;;;3.40;;
43160;SDS011;40968;52.342;5.528;2023-02-03T07:34:27;16.90;;;3.88;;
43160;SDS011;40968;52.342;5.528;2023-02-03T07:36:56;21.83;;;4.00;;
43160;SDS011;40968;52.342;5.528;2023-02-03T07:39:24;15.80;;;3.22;;
43160;SDS011;40968;52.342;5.528;2023-02-03T07:41:53;13.45;;;2.92;;
43160;SDS011;40968;52.342;5.528;2023-02-03T07:44:21;18.10;;;3.15;;
43160;SDS011;40968;52.342;5.528;2023-02-03T07:46:48;11.77;;;3.50;;
43160;SDS011;40968;52.342;5.528;2023-02-03T07:49:14;14.77;;;3.60;;
43160;SDS011;40968;52.342;5.528;2023-02-03T07:51:41;22.23;;;3.55;;
43160;SDS011;40968;52.342;5.528;2023-02-03T07:54:08;20.08;;;3.60;;
43160;SDS011;40968;52.342;5.528;2023-02-03T07:56:34;29.17;;;4.53;;
43160;SDS011;40968;52.342;5.528;2023-02-03T07:59:01;18.70;;;3.58;;
43160;SDS011;40968;52.342;5.528;2023-02-03T08:01:29;21.35;;;3.63;;
43160;SDS011;40968;52.342;5.528;2023-02-03T08:03:58;21.55;;;3.55;;
43160;SDS011;40968;52.342;5.528;2023-02-03T08:06:26;15.75;;;4.47;;
43160;SDS011;40968;52.342;5.528;2023-02-03T08:08:54;17.00;;;3.35;;
43160;SDS011;40968;52.342;5.528;2023-02-03T08:11:21;14.70;;;5.05;;
43160;SDS011;40968;52.342;5.528;2023-02-03T08:13:48;22.08;;;4.05;;
43160;SDS011;40968;52.342;5.528;2023-02-03T08:16:15;20.48;;;3.45;;
43160;SDS011;40968;52.342;5.528;2023-02-03T08:18:44;16.35;;;3.47;;
43160;SDS011;40968;52.342;5.528;2023-02-03T08:21:10;12.82;;;2.90;;
43160;SDS011;40968;52.342;5.528;2023-02-03T08:23:37;14.77;;;3.42;;
43160;SDS011;40968;52.342;5.528;2023-02-03T08:26:04;13.77;;;3.38;;
43160;SDS011;40968;52.342;5.528;2023-02-03T08:28:30;17.92;;;4.20;;
43160;SDS011;40968;52.342;5.528;2023-02-03T08:30:57;10.15;;;2.90;;
43160;SDS011;40968;52.342;5.528;2023-02-03T08:33:24;15.95;;;3.10;;
43160;SDS011;40968;52.342;5.528;2023-02-03T08:35:52;15.68;;;3.15;;
43160;SDS011;40968;52.342;5.528;2023-02-03T08:38:18;15.18;;;4.75;;
43160;SDS011;40968;52.342;5.528;2023-02-03T08:40:46;15.25;;;3.42;;
43160;SDS011;40968;52.342;5.528;2023-02-03T08:43:13;20.70;;;3.35;;
43160;SDS011;40968;52.342;5.528;2023-02-03T08:45:40;14.65;;;3.63;;
43160;SDS011;40968;52.342;5.528;2023-02-03T08:48:07;15.15;;;2.83;;
43160;SDS011;40968;52.342;5.528;2023-02-03T08:50:33;11.80;;;2.80;;
43160;SDS011;40968;52.342;5.528;2023-02-03T08:53:01;18.40;;;3.35;;
43160;SDS011;40968;52.342;5.528;2023-02-03T08:55:28;13.93;;;3.28;;
43160;SDS011;40968;52.342;5.528;2023-02-03T08:57:55;18.20;;;3.70;;
43160;SDS011;40968;52.342;5.528;2023-02-03T09:00:21;10.80;;;2.55;;
43160;SDS011;40968;52.342;5.528;2023-02-03T09:02:48;14.40;;;2.95;;
43160;SDS011;40968;52.342;5.528;2023-02-03T09:05:15;16.35;;;3.42;;
43160;SDS011;40968;52.342;5.528;2023-02-03T09:07:42;18.50;;;3.33;;
43160;SDS011;40968;52.342;5.528;2023-02-03T09:10:10;11.52;;;2.85;;
43160;SDS011;40968;52.342;5.528;2023-02-03T09:12:37;14.65;;;3.13;;
43160;SDS011;40968;52.342;5.528;2023-02-03T09:15:04;9.82;;;3.10;;
43160;SDS011;40968;52.342;5.528;2023-02-03T09:17:31;15.95;;;4.47;;
43160;SDS011;40968;52.342;5.528;2023-02-03T09:19:57;12.93;;;3.60;;
43160;SDS011;40968;52.342;5.528;2023-02-03T09:22:24;12.95;;;3.30;;
43160;SDS011;40968;52.342;5.528;2023-02-03T09:24:50;17.50;;;3.63;;
43160;SDS011;40968;52.342;5.528;2023-02-03T09:27:18;17.27;;;4.25;;
43160;SDS011;40968;52.342;5.528;2023-02-03T09:29:45;21.42;;;3.67;;
43160;SDS011;40968;52.342;5.528;2023-02-03T09:32:11;18.30;;;3.13;;
43160;SDS011;40968;52.342;5.528;2023-02-03T09:34:38;17.10;;;3.40;;
43160;SDS011;40968;52.342;5.528;2023-02-03T09:37:05;11.02;;;3.20;;
43160;SDS011;40968;52.342;5.528;2023-02-03T09:39:32;10.52;;;3.08;;
43160;SDS011;40968;52.342;5.528;2023-02-03T09:42:05;20.52;;;4.43;;
43160;SDS011;40968;52.342;5.528;2023-02-03T09:44:44;11.57;;;2.70;;
43160;SDS011;40968;52.342;5.528;2023-02-03T09:47:16;15.00;;;3.17;;
43160;SDS011;40968;52.342;5.528;2023-02-03T09:49:45;17.63;;;3.17;;
43160;SDS011;40968;52.342;5.528;2023-02-03T09:52:17;17.23;;;3.15;;
43160;SDS011;40968;52.342;5.528;2023-02-03T09:54:47;8.43;;;2.83;;
43160;SDS011;40968;52.342;5.528;2023-02-03T09:57:19;10.73;;;3.05;;
43160;SDS011;40968;52.342;5.528;2023-02-03T09:59:49;20.75;;;3.92;;
43160;SDS011;40968;52.342;5.528;2023-02-03T10:13:25;19.37;;;3.40;;
43160;SDS011;40968;52.342;5.528;2023-02-03T10:16:10;10.23;;;3.17;;
43160;SDS011;40968;52.342;5.528;2023-02-03T10:18:55;15.85;;;3.35;;
43160;SDS011;40968;52.342;5.528;2023-02-03T10:23:59;23.23;;;3.03;;
43160;SDS011;40968;52.342;5.528;2023-02-03T10:26:29;18.58;;;3.60;;
43160;SDS011;40968;52.342;5.528;2023-02-03T10:28:57;20.38;;;3.30;;
43160;SDS011;40968;52.342;5.528;2023-02-03T10:31:32;7.75;;;2.40;;
43160;SDS011;40968;52.342;5.528;2023-02-03T10:34:06;10.10;;;2.95;;
43160;SDS011;40968;52.342;5.528;2023-02-03T10:36:39;17.45;;;3.13;;
43160;SDS011;40968;52.342;5.528;2023-02-03T10:39:16;13.38;;;3.17;;
43160;SDS011;40968;52.342;5.528;2023-02-03T10:41:50;18.23;;;3.10;;
43160;SDS011;40968;52.342;5.528;2023-02-03T10:44:17;10.57;;;3.42;;
43160;SDS011;40968;52.342;5.528;2023-02-03T10:46:44;12.77;;;3.72;;
43160;SDS011;40968;52.342;5.528;2023-02-03T10:49:11;16.92;;;3.53;;
43160;SDS011;40968;52.342;5.528;2023-02-03T10:51:41;10.60;;;2.95;;
43160;SDS011;40968;52.342;5.528;2023-02-03T10:54:25;15.45;;;3.30;;
43160;SDS011;40968;52.342;5.528;2023-02-03T10:56:54;13.50;;;3.67;;
43160;SDS011;40968;52.342;5.528;2023-02-03T10:59:26;14.20;;;3.30;;
43160;SDS011;40968;52.342;5.528;2023-02-03T11:01:57;11.00;;;3.20;;
43160;SDS011;40968;52.342;5.528;2023-02-03T11:04:24;14.35;;;3.10;;
43160;SDS011;40968;52.342;5.528;2023-02-03T11:06:53;18.38;;;3.30;;
43160;SDS011;40968;52.342;5.528;2023-02-03T11:09:22;17.70;;;4.25;;
43160;SDS011;40968;52.342;5.528;2023-02-03T11:12:04;15.32;;;4.43;;
43160;SDS011;40968;52.342;5.528;2023-02-03T11:14:35;12.68;;;3.15;;
43160;SDS011;40968;52.342;5.528;2023-02-03T11:17:06;11.15;;;3.65;;
43160;SDS011;40968;52.342;5.528;2023-02-03T11:19:34;15.07;;;3.83;;
43160;SDS011;40968;52.342;5.528;2023-02-03T11:22:03;12.90;;;3.42;;
43160;SDS011;40968;52.342;5.528;2023-02-03T11:24:31;13.85;;;3.38;;
43160;SDS011;40968;52.342;5.528;2023-02-03T11:27:03;18.88;;;4.00;;
43160;SDS011;40968;52.342;5.528;2023-02-03T11:29:32;17.25;;;3.17;;
43160;SDS011;40968;52.342;5.528;2023-02-03T11:32:01;13.30;;;2.97;;
43160;SDS011;40968;52.342;5.528;2023-02-03T11:34:33;26.95;;;3.70;;
43160;SDS011;40968;52.342;5.528;2023-02-03T11:39:54;22.55;;;3.80;;
43160;SDS011;40968;52.342;5.528;2023-02-03T11:42:22;14.20;;;3.90;;
43160;SDS011;40968;52.342;5.528;2023-02-03T11:44:50;15.15;;;3.85;;
43160;SDS011;40968;52.342;5.528;2023-02-03T11:47:17;17.75;;;3.30;;
43160;SDS011;40968;52.342;5.528;2023-02-03T11:50:04;16.25;;;4.32;;
43160;SDS011;40968;52.342;5.528;2023-02-03T11:52:49;17.00;;;3.85;;
43160;SDS011;40968;52.342;5.528;2023-02-03T11:55:33;20.92;;;4.00;;
43160;SDS011;40968;52.342;5.528;2023-02-03T11:58:13;19.00;;;4.65;;
43160;SDS011;40968;52.342;5.528;2023-02-03T12:00:59;18.15;;;3.55;;
43160;SDS011;40968;52.342;5.528;2023-02-03T12:03:39;17.90;;;3.88;;
43160;SDS011;40968;52.342;5.528;2023-02-03T12:06:28;16.05;;;3.53;;
43160;SDS011;40968;52.342;5.528;2023-02-03T12:09:18;37.22;;;4.72;;
43160;SDS011;40968;52.342;5.528;2023-02-03T12:12:06;13.57;;;3.83;;
43160;SDS011;40968;52.342;5.528;2023-02-03T12:14:48;21.90;;;4.70;;
43160;SDS011;40968;52.342;5.528;2023-02-03T12:17:28;20.65;;;4.22;;
43160;SDS011;40968;52.342;5.528;2023-02-03T12:20:14;27.88;;;4.32;;
43160;SDS011;40968;52.342;5.528;2023-02-03T12:22:51;21.10;;;4.68;;
43160;SDS011;40968;52.342;5.528;2023-02-03T12:25:31;20.20;;;4.00;;
43160;SDS011;40968;52.342;5.528;2023-02-03T12:28:10;15.52;;;4.18;;
43160;SDS011;40968;52.342;5.528;2023-02-03T12:30:48;24.40;;;5.05;;
43160;SDS011;40968;52.342;5.528;2023-02-03T12:33:19;37.78;;;5.47;;
43160;SDS011;40968;52.342;5.528;2023-02-03T12:35:52;26.20;;;4.78;;
43160;SDS011;40968;52.342;5.528;2023-02-03T12:38:25;21.45;;;4.13;;
43160;SDS011;40968;52.342;5.528;2023-02-03T12:41:00;21.60;;;4.30;;
43160;SDS011;40968;52.342;5.528;2023-02-03T12:43:32;23.10;;;4.28;;
43160;SDS011;40968;52.342;5.528;2023-02-03T12:46:03;29.85;;;6.55;;
43160;SDS011;40968;52.342;5.528;2023-02-03T12:48:39;37.28;;;5.88;;
43160;SDS011;40968;52.342;5.528;2023-02-03T12:51:13;26.15;;;4.63;;
43160;SDS011;40968;52.342;5.528;2023-02-03T12:53:50;35.58;;;5.90;;
43160;SDS011;40968;52.342;5.528;2023-02-03T12:56:23;28.08;;;4.90;;
43160;SDS011;40968;52.342;5.528;2023-02-03T12:58:55;25.17;;;4.72;;
43160;SDS011;40968;52.342;5.528;2023-02-03T13:01:30;32.10;;;5.80;;
43160;SDS011;40968;52.342;5.528;2023-02-03T13:04:04;23.08;;;4.72;;
43160;SDS011;40968;52.342;5.528;2023-02-03T13:06:38;19.15;;;4.43;;
43160;SDS011;40968;52.342;5.528;2023-02-03T13:09:20;21.63;;;4.75;;
43160;SDS011;40968;52.342;5.528;2023-02-03T13:11:55;26.08;;;5.22;;
43160;SDS011;40968;52.342;5.528;2023-02-03T13:14:30;23.85;;;4.90;;
43160;SDS011;40968;52.342;5.528;2023-02-03T13:17:02;26.15;;;5.72;;
43160;SDS011;40968;52.342;5.528;2023-02-03T13:19:36;29.80;;;4.97;;
43160;SDS011;40968;52.342;5.528;2023-02-03T13:22:11;32.10;;;5.95;;
43160;SDS011;40968;52.342;5.528;2023-02-03T13:24:41;24.30;;;5.80;;
43160;SDS011;40968;52.342;5.528;2023-02-03T13:27:18;43.67;;;7.00;;
43160;SDS011;40968;52.342;5.528;2023-02-03T13:30:07;32.95;;;6.20;;
43160;SDS011;40968;52.342;5.528;2023-02-03T13:32:53;36.85;;;5.97;;
43160;SDS011;40968;52.342;5.528;2023-02-03T13:35:42;36.83;;;5.88;;
43160;SDS011;40968;52.342;5.528;2023-02-03T13:38:24;29.85;;;6.70;;
43160;SDS011;40968;52.342;5.528;2023-02-03T13:41:06;22.10;;;5.25;;
43160;SDS011;40968;52.342;5.528;2023-02-03T13:43:38;31.25;;;6.70;;
43160;SDS011;40968;52.342;5.528;2023-02-03T13:46:17;33.45;;;5.70;;
43160;SDS011;40968;52.342;5.528;2023-02-03T13:48:47;42.05;;;6.80;;
43160;SDS011;40968;52.342;5.528;2023-02-03T13:51:17;36.72;;;6.68;;
43160;SDS011;40968;52.342;5.528;2023-02-03T13:53:57;27.80;;;6.10;;
43160;SDS011;40968;52.342;5.528;2023-02-03T13:56:28;27.15;;;5.80;;
43160;SDS011;40968;52.342;5.528;2023-02-03T13:59:01;44.45;;;7.07;;
43160;SDS011;40968;52.342;5.528;2023-02-03T14:01:31;30.55;;;6.05;;
43160;SDS011;40968;52.342;5.528;2023-02-03T14:09:37;39.17;;;6.32;;
43160;SDS011;40968;52.342;5.528;2023-02-03T14:12:22;32.17;;;6.60;;
43160;SDS011;40968;52.342;5.528;2023-02-03T14:14:59;39.97;;;7.25;;
43160;SDS011;40968;52.342;5.528;2023-02-03T14:26:36;40.35;;;7.18;;
43160;SDS011;40968;52.342;5.528;2023-02-03T14:29:07;39.63;;;7.25;;
43160;SDS011;40968;52.342;5.528;2023-02-03T14:31:52;42.30;;;7.13;;
43160;SDS011;40968;52.342;5.528;2023-02-03T14:34:26;42.90;;;7.47;;
43160;SDS011;40968;52.342;5.528;2023-02-03T14:36:56;37.78;;;6.18;;
43160;SDS011;40968;52.342;5.528;2023-02-03T14:45:48;40.92;;;6.93;;
43160;SDS011;40968;52.342;5.528;2023-02-03T14:51:26;27.83;;;6.85;;
43160;SDS011;40968;52.342;5.528;2023-02-03T14:54:14;32.53;;;6.32;;
43160;SDS011;40968;52.342;5.528;2023-02-03T14:56:54;37.78;;;8.80;;
43160;SDS011;40968;52.342;5.528;2023-02-03T14:59:42;29.95;;;6.57;;
43160;SDS011;40968;52.342;5.528;2023-02-03T15:02:14;46.28;;;7.68;;
43160;SDS011;40968;52.342;5.528;2023-02-03T15:04:44;30.73;;;6.75;;
43160;SDS011;40968;52.342;5.528;2023-02-03T15:10:14;28.65;;;6.43;;
43160;SDS011;40968;52.342;5.528;2023-02-03T15:12:43;31.92;;;6.63;;
43160;SDS011;40968;52.342;5.528;2023-02-03T15:15:12;37.38;;;6.40;;
43160;SDS011;40968;52.342;5.528;2023-02-03T15:17:48;29.98;;;6.72;;
43160;SDS011;40968;52.342;5.528;2023-02-03T15:20:23;43.63;;;7.15;;
43160;SDS011;40968;52.342;5.528;2023-02-03T15:22:53;39.38;;;6.05;;
43160;SDS011;40968;52.342;5.528;2023-02-03T15:25:20;35.35;;;6.97;;
43160;SDS011;40968;52.342;5.528;2023-02-03T15:27:49;33.08;;;6.65;;
43160;SDS011;40968;52.342;5.528;2023-02-03T15:30:17;34.92;;;6.57;;
43160;SDS011;40968;52.342;5.528;2023-02-03T15:32:53;49.10;;;8.73;;
43160;SDS011;40968;52.342;5.528;2023-02-03T15:35:26;39.00;;;6.53;;
43160;SDS011;40968;52.342;5.528;2023-02-03T15:37:57;38.67;;;6.70;;
43160;SDS011;40968;52.342;5.528;2023-02-03T15:40:30;33.08;;;6.47;;
43160;SDS011;40968;52.342;5.528;2023-02-03T15:43:05;33.75;;;6.40;;
43160;SDS011;40968;52.342;5.528;2023-02-03T15:45:35;34.83;;;7.18;;
43160;SDS011;40968;52.342;5.528;2023-02-03T15:48:11;38.78;;;6.65;;
43160;SDS011;40968;52.342;5.528;2023-02-03T15:50:43;32.78;;;6.50;;